^^
Grace C. Lehan Memorial Weather Station Historical Data
Daily Summary for June 24, 2022 Units:  Metric    English   Both
Daily Weekly Monthly Yearly
  High: Low: Average:
Temperature: 29.9 °C 16.1 °C 22.6 °C
Dew Point: 20.6 °C 14.7 °C 17.8 °C
Humidity: 94% 46.8% 76%
Wind Speed: 6.4km/h 0km/h 0.3km/h
Wind Gust: 16.1km/h - -
Wind- - West
Pressure: 1015.8 hPa 1013.1 hPa -
Precipitation: 0 mm    
 
 
Tabular Data for June 24, 2022
Time Temperature Dew Point Pressure Wind Wind Speed Wind Gust Humidity Rainfall Rate (Hourly) solar
00:04 17 °C 14.8 °C 1014.4 hPa Calm     87% 0 mm 0 W/m2
00:09 17 °C 14.9 °C 1014.4 hPa Calm     87.7% 0 mm 0 W/m2
00:14 16.9 °C 14.9 °C 1014.4 hPa Calm     88% 0 mm 0 W/m2
00:19 16.8 °C 14.9 °C 1014.4 hPa Calm     88% 0 mm 0 W/m2
00:24 16.8 °C 14.9 °C 1014.4 hPa Calm     88.4% 0 mm 0 W/m2
00:29 16.8 °C 14.9 °C 1014.4 hPa Calm     88.8% 0 mm 0 W/m2
00:34 16.7 °C 14.9 °C 1014.4 hPa Calm     89% 0 mm 0 W/m2
00:39 16.7 °C 14.8 °C 1014.4 hPa Calm     89% 0 mm 0 W/m2
00:44 16.6 °C 14.8 °C 1014.4 hPa Calm     89% 0 mm 0 W/m2
00:49 16.6 °C 14.7 °C 1014.4 hPa Calm     89% 0 mm 0 W/m2
00:54 16.6 °C 14.9 °C 1014.4 hPa Calm     90% 0 mm 0 W/m2
00:59 16.5 °C 14.8 °C 1014.4 hPa Calm     90% 0 mm 0 W/m2
01:04 16.4 °C 14.8 °C 1014.4 hPa Calm     90% 0 mm 0 W/m2
01:09 16.4 °C 14.8 °C 1014.4 hPa Calm     90% 0 mm 0 W/m2
01:14 16.4 °C 14.8 °C 1014.4 hPa Calm     90% 0 mm 0 W/m2
01:19 16.4 °C 14.8 °C 1014.4 hPa Calm     90.6% 0 mm 0 W/m2
01:24 16.4 °C 14.9 °C 1014.4 hPa Calm     91% 0 mm 0 W/m2
01:29 16.4 °C 14.9 °C 1014.4 hPa Calm     91% 0 mm 0 W/m2
01:34 16.4 °C 14.9 °C 1014.4 hPa Calm     91% 0 mm 0 W/m2
01:39 16.4 °C 14.9 °C 1014.4 hPa Calm     91% 0 mm 0 W/m2
01:44 16.4 °C 14.9 °C 1014.4 hPa Calm     91% 0 mm 0 W/m2
01:49 16.4 °C 14.9 °C 1014.4 hPa Calm     91% 0 mm 0 W/m2
01:54 16.4 °C 14.9 °C 1014.4 hPa Calm     91% 0 mm 0 W/m2
01:59 16.4 °C 14.9 °C 1014.4 hPa Calm     91% 0 mm 0 W/m2
02:04 16.4 °C 14.9 °C 1014.4 hPa Calm     91% 0 mm 0 W/m2
02:09 16.4 °C 14.9 °C 1014.4 hPa Calm     91% 0 mm 0 W/m2
02:14 16.4 °C 14.9 °C 1014.4 hPa Calm     91% 0 mm 0 W/m2
02:19 16.4 °C 14.9 °C 1014.4 hPa Calm     91% 0 mm 0 W/m2
02:24 16.4 °C 14.9 °C 1014.4 hPa Calm     91% 0 mm 0 W/m2
02:29 16.4 °C 14.9 °C 1014.4 hPa Calm     91% 0 mm 0 W/m2
02:34 16.4 °C 14.9 °C 1014.4 hPa Calm     91% 0 mm 0 W/m2
02:39 16.4 °C 15 °C 1014.4 hPa Calm     91% 0 mm 0 W/m2
02:44 16.4 °C 15 °C 1014.4 hPa Calm     91% 0 mm 0 W/m2
02:49 16.4 °C 15 °C 1014.4 hPa Calm     91% 0 mm 0 W/m2
02:54 16.4 °C 15 °C 1014.4 hPa Calm     91% 0 mm 0 W/m2
02:59 16.4 °C 15 °C 1014.1 hPa Calm     91% 0 mm 0 W/m2
03:04 16.4 °C 15 °C 1014.1 hPa Calm     91% 0 mm 0 W/m2
03:09 16.4 °C 15 °C 1014.1 hPa Calm     91% 0 mm 0 W/m2
03:14 16.4 °C 15 °C 1014.1 hPa Calm     91% 0 mm 0 W/m2
03:19 16.4 °C 15 °C 1014.1 hPa Calm     91% 0 mm 0 W/m2
03:24 16.4 °C 15 °C 1014.1 hPa Calm     91% 0 mm 0 W/m2
03:29 16.5 °C 15 °C 1014.1 hPa Calm     91% 0 mm 0 W/m2
03:34 16.5 °C 15.1 °C 1014.1 hPa Calm     91% 0 mm 0 W/m2
03:39 16.5 °C 15.1 °C 1014.1 hPa Calm     91% 0 mm 0 W/m2
03:44 16.6 °C 15.1 °C 1014.1 hPa Calm     91% 0 mm 0 W/m2
03:49 16.6 °C 15.1 °C 1014.1 hPa Calm     91% 0 mm 0 W/m2
03:54 16.6 °C 15.1 °C 1014.1 hPa Calm     91% 0 mm 0 W/m2
03:59 16.6 °C 15.1 °C 1014.1 hPa Calm     91% 0 mm 0 W/m2
04:00 16.6 °C 15.2 °C 1014.1 hPa Calm     91% 0 mm 0 W/m2
04:09 16.6 °C 15.1 °C 1014.4 hPa Calm     91% 0 mm 0 W/m2
04:14 16.6 °C 15.2 °C 1014.4 hPa Calm     91% 0 mm 0 W/m2
04:19 16.6 °C 15.2 °C 1014.4 hPa Calm     91% 0 mm 0 W/m2
04:24 16.6 °C 15.2 °C 1014.4 hPa Calm     91% 0 mm 0 W/m2
04:29 16.6 °C 15.2 °C 1014.4 hPa Calm     91% 0 mm 0 W/m2
04:34 16.6 °C 15.1 °C 1014.4 hPa Calm     91% 0 mm 0 W/m2
04:39 16.6 °C 15.1 °C 1014.4 hPa Calm     91% 0 mm 0 W/m2
04:44 16.6 °C 15.1 °C 1014.4 hPa Calm     91% 0 mm 0 W/m2
04:49 16.6 °C 15.1 °C 1014.4 hPa Calm     91% 0 mm 0 W/m2
04:54 16.5 °C 15.1 °C 1014.4 hPa Calm     91% 0 mm 0 W/m2
04:59 16.4 °C 15 °C 1014.4 hPa Calm     91% 0 mm 0 W/m2
05:04 16.4 °C 14.9 °C 1014.4 hPa Calm     91% 0 mm 0 W/m2
05:09 16.3 °C 14.9 °C 1014.4 hPa Calm     91% 0 mm 0 W/m2
05:14 16.3 °C 14.8 °C 1014.4 hPa Calm     91% 0 mm 0 W/m2
05:19 16.3 °C 14.8 °C 1014.8 hPa Calm     91% 0 mm 0 W/m2
05:24 16.2 °C 14.7 °C 1014.8 hPa Calm     91% 0 mm 5 W/m2
05:29 16.2 °C 14.7 °C 1014.8 hPa Calm     91.2% 0 mm 9 W/m2
05:34 16.1 °C 14.8 °C 1014.8 hPa Calm     92% 0 mm 12 W/m2
05:39 16.1 °C 14.8 °C 1014.8 hPa Calm     92% 0 mm 21 W/m2
05:44 16.1 °C 14.8 °C 1014.8 hPa Calm     92% 0 mm 26 W/m2
05:49 16.1 °C 14.8 °C 1014.8 hPa Calm     92% 0 mm 39 W/m2
05:54 16.1 °C 14.9 °C 1014.8 hPa Calm     92.5% 0 mm 44 W/m2
05:59 16.2 °C 15.1 °C 1014.8 hPa Calm     93% 0 mm 47 W/m2
06:04 16.3 °C 15.2 °C 1014.8 hPa Calm     93% 0 mm 51 W/m2
06:09 16.4 °C 15.2 °C 1014.8 hPa Calm     93% 0 mm 49 W/m2
06:14 16.4 °C 15.3 °C 1014.8 hPa Calm     93% 0 mm 44 W/m2
06:19 16.6 °C 15.4 °C 1014.8 hPa Calm     93% 0 mm 46 W/m2
06:24 16.7 °C 15.7 °C 1014.8 hPa Calm     93.9% 0 mm 69 W/m2
06:29 16.7 °C 15.8 °C 1014.8 hPa Calm     94% 0 mm 77 W/m2
06:34 16.8 °C 15.8 °C 1014.8 hPa Calm     94% 0 mm 100 W/m2
06:39 16.9 °C 15.9 °C 1014.8 hPa Calm     94% 0 mm 46 W/m2
06:44 17 °C 16.1 °C 1014.8 hPa Calm     94% 0 mm 39 W/m2
06:49 17.1 °C 16.1 °C 1014.8 hPa Calm     94% 0 mm 35 W/m2
06:54 17.2 °C 16.1 °C 1015.1 hPa Calm     93.4% 0 mm 58 W/m2
06:59 17.2 °C 16.1 °C 1015.1 hPa Calm     93% 0 mm 60 W/m2
07:04 17.3 °C 16.2 °C 1014.8 hPa Calm     93% 0 mm 79 W/m2
07:09 17.4 °C 16.2 °C 1015.1 hPa Calm     93% 0 mm 111 W/m2
07:14 17.4 °C 16.3 °C 1015.1 hPa Calm     93% 0 mm 130 W/m2
07:19 17.6 °C 16.4 °C 1015.1 hPa Calm     93% 0 mm 267 W/m2
07:24 17.7 °C 16.6 °C 1015.1 hPa Calm     93% 0 mm 332 W/m2
07:29 18.1 °C 16.9 °C 1015.1 hPa Calm     93.3% 0 mm 441 W/m2
07:34 18.4 °C 17.3 °C 1015.1 hPa Calm     93.1% 0 mm 457 W/m2
07:39 18.9 °C 17.7 °C 1015.1 hPa Calm     92.6% 0 mm 346 W/m2
07:44 19.2 °C 17.6 °C 1015.1 hPa Calm     90.6% 0 mm 148 W/m2
07:49 19.3 °C 17.5 °C 1015.1 hPa Calm     89% 0 mm 279 W/m2
07:54 19.4 °C 17.4 °C 1015.1 hPa Calm     88% 0 mm 216 W/m2
07:59 19.7 °C 17.6 °C 1015.1 hPa Calm     88% 0 mm 446 W/m2
08:09 20.4 °C 18.1 °C 1015.1 hPa Calm     86.4% 0 mm 520 W/m2
08:14 20.9 °C 18.4 °C 1015.1 hPa Calm     85.4% 0 mm 529 W/m2
08:19 21.3 °C 18.4 °C 1015.1 hPa Calm     83.5% 0 mm 548 W/m2
08:24 21.7 °C 18.5 °C 1015.1 hPa Calm     82% 0 mm 557 W/m2
08:29 22.1 °C 18.8 °C 1015.1 hPa Calm     81.4% 0 mm 566 W/m2
08:34 22.5 °C 18.7 °C 1015.1 hPa Calm     79.3% 0 mm 585 W/m2
08:39 22.9 °C 19.1 °C 1015.1 hPa Calm     79.4% 0 mm 608 W/m2
08:44 23.2 °C 19.2 °C 1014.8 hPa Calm     77.9% 0 mm 612 W/m2
08:49 23.4 °C 18.8 °C 1014.8 hPa Calm     75.5% 0 mm 589 W/m2
08:54 23.4 °C 18.8 °C 1014.8 hPa Calm     75.2% 0 mm 601 W/m2
08:59 23.4 °C 18.8 °C 1014.8 hPa Calm     75% 0 mm 601 W/m2
09:04 23.4 °C 18.7 °C 1014.8 hPa Calm     74.8% 0 mm 737 W/m2
09:09 23.4 °C 18.8 °C 1014.8 hPa Calm     75.4% 0 mm 737 W/m2
09:14 23.6 °C 18.9 °C 1014.8 hPa Calm     75.5% 0 mm 765 W/m2
09:19 23.9 °C 19.7 °C 1014.8 hPa Calm     77.4% 0 mm 849 W/m2
09:24 24.2 °C 19.2 °C 1014.8 hPa Calm     73.5% 0 mm 891 W/m2
09:29 24.2 °C 18.6 °C 1014.8 hPa Calm     71% 0 mm 932 W/m2
09:34 24.2 °C 18.8 °C 1014.8 hPa Calm     71.9% 0 mm 932 W/m2
09:39 24.1 °C 18.9 °C 1014.8 hPa Calm     72.7% 0 mm 362 W/m2
09:44 24.1 °C 19.1 °C 1014.8 hPa Calm     73.6% 0 mm 362 W/m2
09:49 24.1 °C 18.8 °C 1014.8 hPa Calm     72.5% 0 mm 464 W/m2
09:54 24 °C 18.8 °C 1014.8 hPa Calm     72.9% 0 mm 466 W/m2
09:59 24.1 °C 18.9 °C 1014.8 hPa East 0.2 km/h 3.2 km/h 72.7% 0 mm 345 W/m2
10:04 24.1 °C 18.9 °C 1014.8 hPa Calm   3.2 km/h 73% 0 mm 383 W/m2
10:09 24.1 °C 19 °C 1014.8 hPa Calm     73.2% 0 mm 1039 W/m2
10:14 24.3 °C 19.4 °C 1014.8 hPa Calm     74% 0 mm 1039 W/m2
10:19 24.6 °C 19.2 °C 1014.8 hPa Calm     71.8% 0 mm 427 W/m2
10:24 24.7 °C 19 °C 1014.8 hPa Calm     70.8% 0 mm 475 W/m2
10:29 24.6 °C 18.8 °C 1014.8 hPa Calm     69.9% 0 mm 290 W/m2
10:34 24.6 °C 18.8 °C 1014.8 hPa SE 0.3 km/h 4.8 km/h 70.2% 0 mm 218 W/m2
10:39 24.5 °C 19 °C 1014.8 hPa SW 0.2 km/h 4.8 km/h 71.3% 0 mm 255 W/m2
10:44 24.5 °C 18.8 °C 1014.8 hPa WSW 0.3 km/h 4.8 km/h 70.8% 0 mm 506 W/m2
10:49 24.7 °C 19 °C 1014.8 hPa WSW 0.3 km/h 6.4 km/h 70.7% 0 mm 1005 W/m2
10:54 25.1 °C 19.2 °C 1014.8 hPa Calm   6.4 km/h 70.1% 0 mm 1118 W/m2
10:59 25.6 °C 19.6 °C 1014.8 hPa West 0.8 km/h 6.4 km/h 69.3% 0 mm 1118 W/m2
11:04 25.8 °C 18.6 °C 1014.8 hPa West 3.7 km/h 14.5 km/h 64.3% 0 mm 276 W/m2
11:09 25.7 °C 18.2 °C 1014.8 hPa WSW 0.8 km/h 14.5 km/h 63.3% 0 mm 251 W/m2
11:14 25.5 °C 18.3 °C 1014.8 hPa West 1 km/h 14.5 km/h 64.5% 0 mm 1129 W/m2
11:19 25.7 °C 18.7 °C 1014.8 hPa West 2.1 km/h 14.5 km/h 65.6% 0 mm 1085 W/m2
11:24 25.7 °C 18.3 °C 1014.8 hPa WNW 1.8 km/h 14.5 km/h 63.6% 0 mm 172 W/m2
11:29 25.6 °C 18.2 °C 1014.8 hPa WNW 0.6 km/h 14.5 km/h 63.9% 0 mm 1016 W/m2
11:34 25.5 °C 18.4 °C 1014.8 hPa West 0.5 km/h 14.5 km/h 65% 0 mm 1093 W/m2
11:39 25.8 °C 19.1 °C 1014.8 hPa West 0.3 km/h 8 km/h 66.7% 0 mm 1158 W/m2
11:44 26.3 °C 19.1 °C 1014.8 hPa West 3.7 km/h 11.3 km/h 64.3% 0 mm 1097 W/m2
11:49 26.4 °C 18.6 °C 1014.8 hPa West 0.6 km/h 11.3 km/h 62.1% 0 mm 1072 W/m2
11:54 26.6 °C 18.9 °C 1014.8 hPa West 2.7 km/h 16.1 km/h 63% 0 mm 1062 W/m2
11:59 26.8 °C 18.7 °C 1014.8 hPa West 0.3 km/h 16.1 km/h 60.9% 0 mm 1092 W/m2
12:00 27 °C 18.6 °C 1014.4 hPa WNW 6.4 km/h 16.1 km/h 60% 0 mm 1092 W/m2
12:09 27.4 °C 19.5 °C 1014.8 hPa WSW 1 km/h 8 km/h 62% 0 mm 1190 W/m2
12:14 27.6 °C 19.2 °C 1014.8 hPa Calm   8 km/h 60.5% 0 mm 1190 W/m2
12:19 27.6 °C 19.9 °C 1014.8 hPa Calm   8 km/h 62.8% 0 mm 1190 W/m2
12:24 27.8 °C 19.4 °C 1014.8 hPa WNW 0.6 km/h 8 km/h 60.2% 0 mm 1055 W/m2
12:29 27.8 °C 18.7 °C 1014.8 hPa NNE 0.6 km/h 8 km/h 57.7% 0 mm 1067 W/m2
12:34 27.7 °C 18.7 °C 1014.8 hPa Calm   8 km/h 58.1% 0 mm 229 W/m2
12:39 27.5 °C 18.9 °C 1014.8 hPa NW 0.5 km/h 4.8 km/h 59.6% 0 mm 492 W/m2
12:44 27.4 °C 18.3 °C 1014.8 hPa West 1 km/h 6.4 km/h 57.6% 0 mm 492 W/m2
12:49 27.3 °C 18.8 °C 1014.4 hPa Calm   6.4 km/h 59.7% 0 mm 343 W/m2
12:54 27.2 °C 18.4 °C 1014.4 hPa Calm   6.4 km/h 58.8% 0 mm 986 W/m2
12:59 27.2 °C 19.2 °C 1014.4 hPa Calm   6.4 km/h 61.7% 0 mm 990 W/m2
13:04 27.3 °C 19.4 °C 1014.4 hPa West 0.2 km/h 6.4 km/h 62.2% 0 mm 988 W/m2
13:09 27.4 °C 19.3 °C 1014.4 hPa West 0.3 km/h 4.8 km/h 61.1% 0 mm 963 W/m2
13:14 27.5 °C 19.5 °C 1014.1 hPa WNW 0.8 km/h 8 km/h 61.8% 0 mm 976 W/m2
13:19 27.7 °C 19.7 °C 1014.1 hPa Calm   8 km/h 62% 0 mm 1004 W/m2
13:24 27.9 °C 20 °C 1014.1 hPa WNW 0.2 km/h 8 km/h 62% 0 mm 1120 W/m2
13:29 28.2 °C 19.7 °C 1014.1 hPa WNW 0.2 km/h 8 km/h 60% 0 mm 1120 W/m2
13:34 28.2 °C 19.4 °C 1014.1 hPa Calm   8 km/h 59.1% 0 mm 1100 W/m2
13:39 28.2 °C 19.5 °C 1014.1 hPa Calm   1.6 km/h 59.5% 0 mm 1078 W/m2
13:44 28.2 °C 19.3 °C 1014.1 hPa Calm   1.6 km/h 58.3% 0 mm 1053 W/m2
13:49 28.3 °C 19.7 °C 1014.1 hPa Calm   1.6 km/h 59.5% 0 mm 1095 W/m2
13:54 28.5 °C 19.7 °C 1014.1 hPa West 1.6 km/h 16.1 km/h 58.7% 0 mm 1071 W/m2
13:59 28.8 °C 19.8 °C 1013.8 hPa West 1 km/h 16.1 km/h 58.3% 0 mm 1053 W/m2
14:04 28.9 °C 19.4 °C 1013.8 hPa West 0.8 km/h 16.1 km/h 56.5% 0 mm 1088 W/m2
14:05 29.1 °C 20.2 °C 1013.8 hPa Calm   8 km/h 59% 0 mm 1129 W/m2
14:30 28.9 °C 19.2 °C 1013.8 hPa Calm   9.7 km/h 56% 0 mm 804 W/m2
15:00 29.1 °C 19.4 °C 1013.4 hPa Calm   8 km/h 56% 0 mm 682 W/m2
15:30 29.6 °C 19.1 °C 1013.4 hPa Calm   8 km/h 53% 0 mm 798 W/m2
16:04 29.3 °C 18.6 °C 1013.4 hPa West 2.7 km/h 8 km/h 52.5% 0 mm 902 W/m2
16:09 29.3 °C 18.5 °C 1013.4 hPa WNW 3.4 km/h 16.1 km/h 52.1% 0 mm 902 W/m2
16:14 29.5 °C 18.4 °C 1013.1 hPa WNW 1.1 km/h 16.1 km/h 51.4% 0 mm 856 W/m2
16:19 29.6 °C 18.7 °C 1013.1 hPa WNW 1.6 km/h 16.1 km/h 52.1% 0 mm 330 W/m2
16:24 29.6 °C 18.2 °C 1013.1 hPa West 2.4 km/h 16.1 km/h 50.5% 0 mm 225 W/m2
16:29 29.7 °C 18.6 °C 1013.1 hPa West 1.3 km/h 16.1 km/h 51.3% 0 mm 221 W/m2
16:34 29.8 °C 18.3 °C 1013.1 hPa West 3.2 km/h 16.1 km/h 50.2% 0 mm 221 W/m2
16:39 29.9 °C 18.2 °C 1013.1 hPa WSW 3.4 km/h 16.1 km/h 49.4% 0 mm 179 W/m2
16:44 29.8 °C 18.1 °C 1013.1 hPa West 1.8 km/h 16.1 km/h 49.3% 0 mm 181 W/m2
16:49 29.8 °C 17.9 °C 1013.1 hPa West 1.1 km/h 16.1 km/h 48.8% 0 mm 197 W/m2
16:54 29.7 °C 17.6 °C 1013.1 hPa West 1.8 km/h 16.1 km/h 48% 0 mm 190 W/m2
16:59 29.6 °C 17.1 °C 1013.1 hPa WNW 1.6 km/h 16.1 km/h 46.8% 0 mm 172 W/m2
17:04 29.5 °C 17 °C 1013.1 hPa WNW 1 km/h 16.1 km/h 47% 0 mm 139 W/m2
17:09 29.4 °C 18.3 °C 1013.1 hPa West 0.6 km/h 16.1 km/h 51.3% 0 mm 148 W/m2
17:14 29.4 °C 20 °C 1013.4 hPa West 0.6 km/h 16.1 km/h 56.9% 0 mm 169 W/m2
17:19 29.4 °C 20.6 °C 1013.4 hPa West 1.3 km/h 16.1 km/h 58.8% 0 mm 153 W/m2
17:24 29.4 °C 20.4 °C 1013.4 hPa Calm   16.1 km/h 58.3% 0 mm 151 W/m2
17:29 29.3 °C 20.3 °C 1013.1 hPa Calm   16.1 km/h 58.3% 0 mm 151 W/m2
17:34 29.1 °C 20 °C 1013.1 hPa West 0.2 km/h 16.1 km/h 58.2% 0 mm 100 W/m2
17:39 28.8 °C 20.3 °C 1013.1 hPa West 0.2 km/h 4.8 km/h 59.9% 0 mm 105 W/m2
17:44 28.7 °C 20.2 °C 1013.1 hPa Calm   4.8 km/h 59.9% 0 mm 120 W/m2
17:49 28.7 °C 20.2 °C 1013.1 hPa Calm   4.8 km/h 60% 0 mm 142 W/m2
17:54 28.6 °C 20.2 °C 1013.1 hPa West 0.3 km/h 6.4 km/h 60.5% 0 mm 135 W/m2
17:59 28.5 °C 19.8 °C 1013.1 hPa West 0.2 km/h 6.4 km/h 59.4% 0 mm 90 W/m2
18:04 28.4 °C 19.9 °C 1013.1 hPa West 0.3 km/h 6.4 km/h 60% 0 mm 81 W/m2
18:09 28.3 °C 19.7 °C 1013.1 hPa Calm   4.8 km/h 59.7% 0 mm 53 W/m2
18:14 28.2 °C 19.7 °C 1013.1 hPa Calm   4.8 km/h 59.8% 0 mm 51 W/m2
18:19 28.2 °C 19.7 °C 1013.1 hPa Calm   4.8 km/h 60% 0 mm 51 W/m2
18:24 28.1 °C 19.7 °C 1013.4 hPa Calm   4.8 km/h 60.1% 0 mm 46 W/m2
18:29 28.1 °C 20.1 °C 1013.4 hPa West 0.2 km/h 4.8 km/h 61.9% 0 mm 39 W/m2
18:34 28.1 °C 20.3 °C 1013.4 hPa West 0.2 km/h 4.8 km/h 62.8% 0 mm 39 W/m2
18:39 27.9 °C 20.3 °C 1013.4 hPa WSW 0.3 km/h 4.8 km/h 63% 0 mm 40 W/m2
18:44 27.9 °C 20 °C 1013.4 hPa Calm   4.8 km/h 62.3% 0 mm 40 W/m2
18:49 27.8 °C 20.1 °C 1013.4 hPa WSW 0.2 km/h 4.8 km/h 62.8% 0 mm 39 W/m2
18:54 27.8 °C 20.1 °C 1013.4 hPa WSW 0.5 km/h 8 km/h 63% 0 mm 35 W/m2
18:59 27.7 °C 19.9 °C 1013.4 hPa Calm   8 km/h 62.5% 0 mm 33 W/m2
19:04 27.7 °C 20 °C 1013.4 hPa Calm   8 km/h 63% 0 mm 32 W/m2
19:09 27.6 °C 20.1 °C 1013.4 hPa Calm     63.6% 0 mm 30 W/m2
19:14 27.5 °C 20.1 °C 1013.4 hPa Calm     64% 0 mm 30 W/m2
19:19 27.4 °C 20 °C 1013.8 hPa Calm     64% 0 mm 28 W/m2
19:24 27.3 °C 19.9 °C 1013.8 hPa Calm     64% 0 mm 26 W/m2
19:29 27.2 °C 19.9 °C 1013.8 hPa Calm     64.4% 0 mm 26 W/m2
19:34 27.1 °C 19.9 °C 1013.8 hPa Calm     65% 0 mm 25 W/m2
19:39 27 °C 20.1 °C 1013.8 hPa Calm     66% 0 mm 23 W/m2
19:44 26.9 °C 20.1 °C 1013.8 hPa Calm     66% 0 mm 21 W/m2
19:49 26.8 °C 19.9 °C 1013.8 hPa Calm     66.1% 0 mm 19 W/m2
19:54 26.7 °C 20.1 °C 1013.8 hPa Calm     67% 0 mm 18 W/m2
19:59 26.6 °C 20.1 °C 1013.8 hPa Calm     67.6% 0 mm 14 W/m2
20:09 26.3 °C 19.9 °C 1014.1 hPa Calm     68% 0 mm 9 W/m2
20:14 26.2 °C 19.9 °C 1014.1 hPa Calm     68.6% 0 mm 9 W/m2
20:19 26 °C 19.9 °C 1014.1 hPa Calm     69.2% 0 mm 5 W/m2
20:24 25.8 °C 19.9 °C 1014.1 hPa Calm     70% 0 mm 0 W/m2
20:29 25.7 °C 19.8 °C 1014.1 hPa Calm     70% 0 mm 0 W/m2
20:34 25.5 °C 19.7 °C 1014.1 hPa Calm     70.3% 0 mm 0 W/m2
20:39 25.4 °C 19.7 °C 1014.4 hPa Calm     71% 0 mm 0 W/m2
20:44 25.2 °C 19.6 °C 1014.4 hPa Calm     71% 0 mm 0 W/m2
20:49 25.1 °C 19.6 °C 1014.4 hPa Calm     71.9% 0 mm 0 W/m2
20:54 24.9 °C 19.5 °C 1014.4 hPa Calm     72% 0 mm 0 W/m2
20:59 24.8 °C 19.5 °C 1014.4 hPa Calm     72.3% 0 mm 0 W/m2
21:04 24.7 °C 19.6 °C 1014.4 hPa Calm     73% 0 mm 0 W/m2
21:09 24.6 °C 19.5 °C 1014.4 hPa Calm     73.3% 0 mm 0 W/m2
21:14 24.4 °C 19.5 °C 1014.8 hPa Calm     74% 0 mm 0 W/m2
21:19 24.3 °C 19.4 °C 1014.8 hPa Calm     74.1% 0 mm 0 W/m2
21:24 24.2 °C 19.4 °C 1014.8 hPa Calm     75% 0 mm 0 W/m2
21:29 24.1 °C 19.4 °C 1015.1 hPa Calm     75.6% 0 mm 0 W/m2
21:34 23.9 °C 19.4 °C 1015.1 hPa Calm     76% 0 mm 0 W/m2
21:39 23.8 °C 19.4 °C 1015.1 hPa Calm     76.4% 0 mm 0 W/m2
21:44 23.7 °C 19.4 °C 1015.1 hPa Calm     77% 0 mm 0 W/m2
21:49 23.6 °C 19.4 °C 1015.1 hPa Calm     77.8% 0 mm 0 W/m2
21:54 23.4 °C 19.4 °C 1015.1 hPa Calm     78% 0 mm 0 W/m2
21:59 23.3 °C 19.3 °C 1015.1 hPa Calm     78.2% 0 mm 0 W/m2
22:04 23.2 °C 19.4 °C 1015.5 hPa Calm     79% 0 mm 0 W/m2
22:09 23.1 °C 19.3 °C 1015.5 hPa Calm     79.3% 0 mm 0 W/m2
22:14 23 °C 19.4 °C 1015.5 hPa Calm     80% 0 mm 0 W/m2
22:19 22.9 °C 19.3 °C 1015.5 hPa Calm     80% 0 mm 0 W/m2
22:24 22.8 °C 19.3 °C 1015.5 hPa Calm     80.6% 0 mm 0 W/m2
22:29 22.7 °C 19.3 °C 1015.5 hPa Calm     81% 0 mm 0 W/m2
22:34 22.6 °C 19.2 °C 1015.5 hPa Calm     81.2% 0 mm 0 W/m2
22:39 22.5 °C 19.3 °C 1015.5 hPa Calm     82% 0 mm 0 W/m2
22:44 22.4 °C 19.2 °C 1015.5 hPa Calm     82% 0 mm 0 W/m2
22:49 22.3 °C 19.1 °C 1015.5 hPa Calm     82% 0 mm 0 W/m2
22:54 22.3 °C 19.2 °C 1015.5 hPa Calm     82.5% 0 mm 0 W/m2
22:59 22.2 °C 19.1 °C 1015.5 hPa Calm     82.7% 0 mm 0 W/m2
23:04 22.1 °C 19.1 °C 1015.5 hPa Calm     83% 0 mm 0 W/m2
23:09 22 °C 19 °C 1015.5 hPa Calm     83% 0 mm 0 W/m2
23:14 21.9 °C 18.9 °C 1015.8 hPa Calm     83.1% 0 mm 0 W/m2
23:19 21.8 °C 19 °C 1015.8 hPa Calm     84% 0 mm 0 W/m2
23:24 21.7 °C 18.9 °C 1015.8 hPa Calm     84.1% 0 mm 0 W/m2
23:29 21.7 °C 19 °C 1015.8 hPa Calm     85% 0 mm 0 W/m2
23:34 21.6 °C 18.9 °C 1015.8 hPa Calm     85% 0 mm 0 W/m2
23:39 21.6 °C 18.9 °C 1015.8 hPa Calm     85% 0 mm 0 W/m2
23:44 21.6 °C 19 °C 1015.8 hPa Calm     85.5% 0 mm 0 W/m2
23:49 21.5 °C 18.9 °C 1015.8 hPa Calm     85% 0 mm 0 W/m2
23:54 21.4 °C 18.9 °C 1015.8 hPa Calm     85.3% 0 mm 0 W/m2
23:59 21.4 °C 19 °C 1015.8 hPa Calm     86% 0 mm 0 W/m2
Hartford County Weather
Compliments of Weather Underground - 2 mb